Flugplatz Segelfluggelände Isny-Rotmoos (UL)

Hier findest Du alle Informationen zum Flugplatz Segelfluggelände Isny-Rotmoos (UL).

Informationen für Piloten zum Flugplatz Segelfluggelände Isny-Rotmoos

Hier findest Du alle relevanten Informationen, die Du als Pilot benötigst, um Segelfluggelände Isny-Rotmoos anzufliegen.

Flugplatz: Segelfluggelände Isny-Rotmoos ICAO-Code: UL Flugplatz
Frequenz Turm: 123.500 Mhz GAFOR Gebiet: -
Frequenz Ground: 123.500 Mhz Mogas: nein
Platzrunde: N 0 ft Landegebühr: -
Platzhöhe: - Sunrise: 06:20 Uhr UTC
Pisten: 07/25 - 455 m x 30 m, GRAS Sunset: 15:48 Uhr UTC

Flugwetter am Flugplatz Segelfluggelände Isny-Rotmoos

Die METAR Information stammen aus EDNY (38.14 km entfernt).

METAR Code:
2019/11/11 17:20
EDNY 111720Z 09004KT 9999 SCT057 BKN067 04/01 Q1008

Flugschulen am Flugplatz Segelfluggelände Isny-Rotmoos

Am Flugplatz Segelfluggelände Isny-Rotmoos gibt es leider keine Flugschule.

Benachbarte Flugplätze und Flugschulen

Es gibt 15 weitere Flugplätze in einem Umkreis von 50 km um den Flugplatz Segelfluggelände Isny-Rotmoos.

Jetzt anmelden

Passwort vergessen

Anzeige: Skymap
Umfrage Archiv

Lasst Ihr Euch bei Überlandflügen von FIS begleiten?

Ja, immer!
62.5 %
Ja, unregelmäßig!
31.3 %
Ja, aber nur selten!
6.3 %
Nein, nie!
0 %
Stimmen: 16 | Diskussion
Anzeige: Roland Aircraft
Statistik Alle Mitglieder

Aktuell sind 13 Besucher online.

Anzeige: VFR Sprechfunk Simulator


Anzeige: Pocket FMS